createdAt,value
2023-03-29T00:01:35.083Z,78.13
2023-03-29T00:04:04.274Z,77.96
2023-03-29T00:06:31.211Z,77.65
2023-03-29T00:08:57.598Z,77.64
2023-03-29T00:11:26.099Z,77.41
2023-03-29T00:13:52.844Z,77.63
2023-03-29T00:16:19.421Z,77.41
2023-03-29T00:18:45.833Z,77.63
2023-03-29T00:21:12.274Z,77.79
2023-03-29T00:23:38.617Z,78.25
2023-03-29T00:26:07.768Z,78.30
2023-03-29T00:28:34.640Z,78.18
2023-03-29T00:31:09.923Z,78.08
2023-03-29T00:33:36.721Z,78.33
2023-03-29T00:36:04.553Z,77.96
2023-03-29T00:38:31.307Z,78.15
2023-03-29T00:40:57.994Z,78.53
2023-03-29T00:43:24.577Z,78.16
2023-03-29T00:45:51.203Z,78.56
2023-03-29T00:48:22.052Z,78.20
2023-03-29T00:50:53.605Z,78.58
2023-03-29T00:53:35.815Z,78.54
2023-03-29T00:56:18.353Z,78.79
2023-03-29T00:58:59.171Z,78.31
2023-03-29T01:01:44.832Z,77.87
2023-03-29T01:04:23.990Z,77.93
2023-03-29T01:06:58.229Z,78.05
2023-03-29T01:09:29.813Z,78.38
2023-03-29T01:12:02.747Z,78.23
2023-03-29T01:14:34.473Z,77.81
2023-03-29T01:17:00.818Z,78.02
2023-03-29T01:19:33.897Z,77.98
2023-03-29T01:22:17.116Z,77.84
2023-03-29T01:25:35.702Z,77.92
2023-03-29T01:28:10.616Z,78.29
2023-03-29T01:30:54.726Z,78.42
2023-03-29T01:33:25.615Z,78.83
2023-03-29T01:36:03.468Z,78.16
2023-03-29T01:38:42.775Z,78.21
2023-03-29T01:41:10.955Z,78.34
2023-03-29T01:43:58.387Z,78.18
2023-03-29T01:46:34.285Z,78.41
2023-03-29T01:49:21.746Z,78.31
2023-03-29T01:51:54.958Z,78.39
2023-03-29T01:54:36.009Z,78.26
2023-03-29T01:57:05.884Z,78.66
2023-03-29T01:59:34.169Z,78.40
2023-03-29T02:02:04.814Z,78.33
2023-03-29T02:04:54.043Z,78.35
2023-03-29T02:07:26.523Z,78.47
2023-03-29T02:09:54.348Z,78.24
2023-03-29T02:12:20.780Z,78.52
2023-03-29T02:14:47.154Z,78.62
2023-03-29T02:17:25.693Z,78.31
2023-03-29T02:19:57.997Z,78.74
2023-03-29T02:22:30.386Z,78.54
2023-03-29T02:24:59.640Z,78.46
2023-03-29T02:27:29.157Z,78.70
2023-03-29T02:29:56.219Z,78.67
2023-03-29T02:32:31.375Z,78.58
2023-03-29T02:35:04.497Z,78.78
2023-03-29T02:37:34.399Z,78.47
2023-03-29T02:40:01.031Z,78.55
2023-03-29T02:42:29.055Z,78.27
2023-03-29T02:44:58.835Z,78.58
2023-03-29T02:47:31.928Z,78.31
2023-03-29T02:49:59.361Z,78.61
2023-03-29T02:52:33.404Z,78.10
2023-03-29T02:55:03.040Z,78.46
2023-03-29T02:57:29.441Z,78.31
2023-03-29T02:59:57.155Z,78.34
2023-03-29T03:02:27.784Z,78.15
2023-03-29T03:04:54.368Z,78.30
2023-03-29T03:07:20.936Z,77.92
2023-03-29T03:09:47.812Z,77.77
2023-03-29T03:12:14.304Z,77.79
2023-03-29T03:14:40.664Z,77.64
2023-03-29T03:17:07.039Z,77.74
2023-03-29T03:19:33.783Z,77.61
2023-03-29T03:22:00.180Z,77.48
2023-03-29T03:24:27.995Z,77.27
2023-03-29T03:26:54.474Z,77.67
2023-03-29T03:29:20.846Z,77.79
2023-03-29T03:31:47.210Z,77.34
2023-03-29T03:34:13.613Z,77.62
2023-03-29T03:36:40.014Z,77.85
2023-03-29T03:39:07.308Z,77.93
2023-03-29T03:41:34.597Z,78.07
2023-03-29T03:44:01.023Z,77.83
2023-03-29T03:46:29.507Z,77.76
2023-03-29T03:48:56.317Z,77.79
2023-03-29T03:51:22.717Z,77.82
2023-03-29T03:53:49.086Z,77.96
2023-03-29T03:56:16.205Z,77.81
2023-03-29T03:58:42.589Z,77.92
2023-03-29T04:01:09.785Z,78.00
2023-03-29T04:03:37.624Z,78.06
2023-03-29T04:06:05.119Z,77.96
2023-03-29T04:08:31.986Z,78.21
2023-03-29T04:10:59.732Z,78.25
2023-03-29T04:13:27.472Z,78.26
2023-03-29T04:15:57.581Z,78.40
2023-03-29T04:18:25.333Z,77.98
2023-03-29T04:20:52.040Z,78.17
2023-03-29T04:23:18.785Z,77.82
2023-03-29T04:25:45.227Z,77.99
2023-03-29T04:28:12.663Z,77.72
2023-03-29T04:30:39.384Z,78.07
2023-03-29T04:33:05.748Z,77.81
2023-03-29T04:35:32.406Z,78.06
2023-03-29T04:37:58.890Z,77.69
2023-03-29T04:40:25.282Z,77.66
2023-03-29T04:42:51.769Z,77.62
2023-03-29T04:45:18.507Z,77.51
2023-03-29T04:47:45.895Z,77.51
2023-03-29T04:50:13.773Z,77.23
2023-03-29T04:52:40.835Z,77.63
2023-03-29T04:55:08.189Z,77.34
2023-03-29T04:57:34.755Z,77.34
2023-03-29T05:00:01.236Z,77.32
2023-03-29T05:02:27.718Z,77.31
2023-03-29T05:04:54.128Z,77.47
2023-03-29T05:07:20.523Z,76.95
2023-03-29T05:09:47.263Z,77.24
2023-03-29T05:12:13.690Z,77.05
2023-03-29T05:14:40.057Z,76.99
2023-03-29T05:17:06.749Z,76.50
2023-03-29T05:19:33.625Z,76.72
2023-03-29T05:22:00.665Z,76.81
2023-03-29T05:24:27.086Z,76.74
2023-03-29T05:26:53.488Z,76.54
2023-03-29T05:29:19.928Z,76.43
2023-03-29T05:31:47.098Z,76.47
2023-03-29T05:34:13.681Z,76.32
2023-03-29T05:36:40.110Z,76.37
2023-03-29T05:39:06.868Z,76.03
2023-03-29T05:41:33.672Z,75.78
2023-03-29T05:44:00.018Z,75.90
2023-03-29T05:46:26.950Z,75.91
2023-03-29T05:48:53.411Z,75.67
2023-03-29T05:51:24.064Z,75.20
2023-03-29T05:53:51.304Z,75.46
2023-03-29T05:56:18.961Z,75.46
2023-03-29T05:58:49.300Z,75.13
2023-03-29T06:01:18.064Z,75.40
2023-03-29T06:03:46.342Z,75.09
2023-03-29T06:06:16.340Z,75.34
2023-03-29T06:08:43.452Z,75.27
2023-03-29T06:11:11.190Z,75.39
2023-03-29T06:13:38.813Z,75.09
2023-03-29T06:16:06.461Z,74.90
2023-03-29T06:18:33.385Z,75.00
2023-03-29T06:21:02.052Z,74.66
2023-03-29T06:23:29.241Z,74.26
2023-03-29T06:25:56.484Z,73.96
2023-03-29T06:28:24.017Z,73.97
2023-03-29T06:30:50.772Z,74.08
2023-03-29T06:33:17.360Z,73.95
2023-03-29T06:35:48.746Z,73.60
2023-03-29T06:38:15.607Z,73.62
2023-03-29T06:40:43.180Z,73.70
2023-03-29T06:43:10.068Z,73.51
2023-03-29T06:45:38.534Z,73.76
2023-03-29T06:48:06.413Z,73.77
2023-03-29T06:50:33.273Z,73.62
2023-03-29T06:53:00.280Z,73.22
2023-03-29T06:55:27.115Z,73.66
2023-03-29T06:57:54.652Z,73.38
2023-03-29T07:00:28.134Z,73.21
2023-03-29T07:02:56.594Z,73.20
2023-03-29T07:05:23.945Z,72.50
2023-03-29T07:07:56.430Z,72.57
2023-03-29T07:10:32.186Z,73.37
2023-03-29T07:13:00.722Z,73.25
2023-03-29T07:15:28.684Z,72.29
2023-03-29T07:17:55.929Z,71.93
2023-03-29T07:20:22.994Z,71.70
2023-03-29T07:22:51.195Z,71.34
2023-03-29T07:25:18.692Z,71.08
2023-03-29T07:27:46.396Z,71.16
2023-03-29T07:30:16.803Z,71.46
2023-03-29T07:32:45.511Z,71.42
2023-03-29T07:35:13.628Z,71.39
2023-03-29T07:37:42.750Z,70.86
2023-03-29T07:40:15.927Z,71.04
2023-03-29T07:42:44.262Z,71.10
2023-03-29T07:45:13.558Z,71.04
2023-03-29T07:47:41.056Z,72.80
2023-03-29T07:50:08.836Z,70.47
2023-03-29T07:52:36.668Z,70.19
2023-03-29T07:55:03.636Z,69.94
2023-03-29T07:57:30.228Z,69.73
2023-03-29T07:59:56.711Z,70.02
2023-03-29T08:02:23.369Z,70.15
2023-03-29T08:04:49.797Z,70.54
2023-03-29T08:07:21.030Z,70.68
2023-03-29T08:09:47.631Z,71.21
2023-03-29T08:12:13.961Z,71.35
2023-03-29T08:14:40.483Z,71.82
2023-03-29T08:17:06.970Z,71.70
2023-03-29T08:19:33.407Z,72.04
2023-03-29T08:22:01.051Z,72.12
2023-03-29T08:24:27.592Z,72.60
2023-03-29T08:26:54.027Z,72.37
2023-03-29T08:29:20.584Z,72.50
2023-03-29T08:31:47.163Z,72.56
2023-03-29T08:34:13.832Z,71.92
2023-03-29T08:36:40.324Z,71.60
2023-03-29T08:39:07.018Z,72.02
2023-03-29T08:42:02.556Z,72.45
2023-03-29T08:44:49.628Z,72.20
2023-03-29T08:47:29.774Z,72.19
2023-03-29T08:49:57.875Z,72.30
2023-03-29T08:52:33.166Z,72.71
2023-03-29T08:55:01.803Z,72.66
2023-03-29T08:57:32.158Z,73.03
2023-03-29T09:00:01.891Z,73.01
2023-03-29T09:02:33.873Z,72.92
2023-03-29T09:05:21.051Z,73.02
2023-03-29T09:07:47.419Z,73.24
2023-03-29T09:10:18.364Z,73.05
2023-03-29T09:13:10.010Z,73.03
2023-03-29T09:15:51.689Z,72.61
2023-03-29T09:18:40.515Z,72.58
2023-03-29T09:21:21.452Z,72.34
2023-03-29T09:24:11.923Z,72.32
2023-03-29T09:27:08.542Z,72.21
2023-03-29T09:29:47.345Z,71.71
2023-03-29T09:32:23.062Z,71.60
2023-03-29T09:35:07.218Z,71.31
2023-03-29T09:37:37.761Z,71.04
2023-03-29T09:40:11.953Z,71.37
2023-03-29T09:42:39.430Z,71.13
2023-03-29T09:45:09.272Z,70.83
2023-03-29T09:47:40.679Z,70.63
2023-03-29T09:50:31.090Z,70.27
2023-03-29T09:52:58.769Z,70.32
2023-03-29T09:55:28.568Z,70.25
2023-03-29T09:58:00.238Z,70.33
2023-03-29T10:00:26.605Z,69.88
2023-03-29T10:02:54.867Z,70.06
2023-03-29T10:05:21.945Z,69.72
2023-03-29T10:07:52.069Z,69.50
2023-03-29T10:10:36.744Z,68.95
2023-03-29T10:13:15.945Z,69.33
2023-03-29T10:15:42.403Z,68.91
2023-03-29T10:18:13.414Z,68.62
2023-03-29T10:20:40.995Z,68.56
2023-03-29T10:23:09.165Z,68.32
2023-03-29T10:25:42.618Z,68.19
2023-03-29T10:28:17.523Z,67.86
2023-03-29T10:30:47.454Z,67.68
2023-03-29T10:33:21.100Z,67.90
2023-03-29T10:35:48.604Z,67.51
2023-03-29T10:38:19.108Z,67.95
2023-03-29T10:40:48.720Z,67.59
2023-03-29T10:43:35.286Z,67.38
2023-03-29T10:46:13.271Z,66.81
2023-03-29T10:48:46.521Z,66.50
2023-03-29T10:51:14.360Z,66.42
2023-03-29T10:53:41.527Z,66.87
2023-03-29T10:56:13.702Z,66.45
2023-03-29T10:59:10.054Z,65.23
2023-03-29T11:02:13.150Z,65.36
2023-03-29T11:04:49.089Z,65.86
2023-03-29T11:07:34.508Z,65.51
2023-03-29T11:10:00.841Z,66.30
2023-03-29T11:12:59.869Z,65.40
2023-03-29T11:15:42.097Z,64.51
2023-03-29T11:18:42.777Z,65.29
2023-03-29T11:21:45.681Z,64.79
2023-03-29T11:24:24.156Z,64.38
2023-03-29T11:27:07.911Z,64.16
2023-03-29T11:30:08.418Z,64.13
2023-03-29T11:32:53.521Z,64.32
2023-03-29T11:36:00.463Z,64.48
2023-03-29T11:38:37.067Z,63.65
2023-03-29T11:41:15.762Z,63.88
2023-03-29T11:43:48.813Z,63.84
2023-03-29T11:47:12.816Z,63.66
2023-03-29T11:50:03.138Z,64.18
2023-03-29T11:52:35.912Z,64.28
2023-03-29T11:55:08.259Z,63.63
2023-03-29T11:57:38.598Z,63.83
2023-03-29T12:00:12.468Z,64.14
2023-03-29T12:02:59.516Z,63.44
2023-03-29T12:05:43.902Z,63.42
2023-03-29T12:08:20.443Z,63.07
2023-03-29T12:11:16.651Z,63.10
2023-03-29T12:13:52.595Z,63.32
2023-03-29T12:16:27.981Z,62.95
2023-03-29T12:18:56.788Z,63.07
2023-03-29T12:21:26.332Z,62.93
2023-03-29T12:23:52.964Z,62.81
2023-03-29T12:26:44.705Z,63.17
2023-03-29T12:29:29.623Z,62.32
2023-03-29T12:32:01.543Z,62.25
2023-03-29T12:35:05.177Z,62.04
2023-03-29T12:37:48.315Z,62.02
2023-03-29T12:40:21.824Z,62.00
2023-03-29T12:42:53.178Z,62.18
2023-03-29T12:45:33.565Z,61.52
2023-03-29T12:48:00.613Z,61.61
2023-03-29T12:50:33.774Z,61.85
2023-03-29T12:53:05.910Z,62.22
2023-03-29T12:55:49.406Z,62.13
2023-03-29T12:58:43.069Z,62.07
2023-03-29T13:01:36.941Z,62.11
2023-03-29T13:04:36.332Z,62.01
2023-03-29T13:07:04.276Z,62.79
2023-03-29T13:09:35.241Z,62.25
2023-03-29T13:12:08.942Z,62.08
2023-03-29T13:14:37.897Z,62.12
2023-03-29T13:17:33.966Z,62.17
2023-03-29T13:20:10.772Z,62.28
2023-03-29T13:22:52.162Z,62.86
2023-03-29T13:25:38.441Z,62.51
2023-03-29T13:28:23.839Z,62.54
2023-03-29T13:31:15.508Z,62.25
2023-03-29T13:33:57.162Z,62.59
2023-03-29T13:36:37.567Z,62.82
2023-03-29T13:39:06.920Z,62.70
2023-03-29T13:41:47.201Z,63.14
2023-03-29T13:44:22.664Z,62.62
2023-03-29T13:47:01.704Z,62.85
2023-03-29T13:49:30.949Z,63.12
2023-03-29T13:52:19.650Z,63.06
2023-03-29T13:54:53.801Z,63.01
2023-03-29T13:57:24.667Z,62.87
2023-03-29T13:59:59.650Z,62.90
2023-03-29T14:02:40.427Z,62.87
2023-03-29T14:05:11.708Z,62.52
2023-03-29T14:07:41.618Z,63.07
2023-03-29T14:10:12.311Z,63.28
2023-03-29T14:12:41.894Z,63.16
2023-03-29T14:15:20.725Z,63.68
2023-03-29T14:17:47.965Z,63.25
2023-03-29T14:20:15.653Z,63.39
2023-03-29T14:22:43.479Z,63.62
2023-03-29T14:25:17.183Z,63.61
2023-03-29T14:27:44.010Z,63.64
2023-03-29T14:30:20.517Z,63.76
2023-03-29T14:32:48.694Z,63.75
2023-03-29T14:35:15.110Z,63.78
2023-03-29T14:37:42.370Z,64.17
2023-03-29T14:40:19.319Z,64.41
2023-03-29T14:42:48.246Z,63.89
2023-03-29T14:45:17.008Z,64.11
2023-03-29T14:47:44.829Z,64.23
2023-03-29T14:50:22.406Z,65.24
2023-03-29T14:52:52.419Z,65.17
2023-03-29T14:55:23.435Z,63.73
2023-03-29T14:57:53.928Z,63.45
2023-03-29T15:00:30.310Z,63.63
2023-03-29T15:03:01.694Z,64.19
2023-03-29T15:05:41.374Z,63.97
2023-03-29T15:08:14.539Z,63.90
2023-03-29T15:10:44.743Z,63.91
2023-03-29T15:13:18.432Z,64.22
2023-03-29T15:15:45.639Z,64.60
2023-03-29T15:18:16.178Z,64.40
2023-03-29T15:20:44.783Z,64.82
2023-03-29T15:23:16.875Z,64.92
2023-03-29T15:25:49.066Z,65.02
2023-03-29T15:28:34.262Z,65.07
2023-03-29T15:31:11.935Z,64.88
2023-03-29T15:33:40.854Z,64.99
2023-03-29T15:36:12.160Z,65.92
2023-03-29T15:38:44.664Z,65.51
2023-03-29T15:41:13.405Z,65.99
2023-03-29T15:43:39.876Z,66.39
2023-03-29T15:46:06.614Z,66.16
2023-03-29T15:48:33.582Z,66.66
2023-03-29T15:51:03.168Z,66.66
2023-03-29T15:53:32.048Z,66.15
2023-03-29T15:56:03.931Z,66.63
2023-03-29T15:58:32.491Z,66.85
2023-03-29T16:01:11.930Z,66.94
2023-03-29T16:03:39.506Z,66.93
2023-03-29T16:06:06.336Z,67.15
2023-03-29T16:08:32.674Z,66.75
2023-03-29T16:10:59.065Z,66.99
2023-03-29T16:13:25.538Z,66.84
2023-03-29T16:15:51.959Z,67.11
2023-03-29T16:18:18.373Z,67.43
2023-03-29T16:20:44.740Z,67.32
2023-03-29T16:23:11.879Z,66.98
2023-03-29T16:25:39.887Z,66.86
2023-03-29T16:28:08.422Z,67.09
2023-03-29T16:30:36.706Z,67.05
2023-03-29T16:33:08.345Z,67.06
2023-03-29T16:35:42.352Z,67.09
2023-03-29T16:38:09.223Z,67.36
2023-03-29T16:40:36.308Z,67.41
2023-03-29T16:43:02.789Z,67.37
2023-03-29T16:45:29.647Z,66.85
2023-03-29T16:47:56.053Z,67.27
2023-03-29T16:50:22.476Z,66.92
2023-03-29T16:52:51.359Z,67.02
2023-03-29T16:55:18.824Z,67.92
2023-03-29T16:57:47.137Z,68.36
2023-03-29T17:00:16.020Z,68.06
2023-03-29T17:02:46.079Z,68.38
2023-03-29T17:05:12.537Z,68.56
2023-03-29T17:07:39.332Z,69.25
2023-03-29T17:10:08.159Z,69.07
2023-03-29T17:12:35.414Z,69.27
2023-03-29T17:15:02.175Z,69.19
2023-03-29T17:17:28.924Z,69.10
2023-03-29T17:19:56.516Z,69.67
2023-03-29T17:22:23.813Z,69.52
2023-03-29T17:24:50.249Z,69.79
2023-03-29T17:27:16.657Z,69.85
2023-03-29T17:29:43.071Z,70.24
2023-03-29T17:32:09.606Z,70.03
2023-03-29T17:34:36.763Z,70.52
2023-03-29T17:37:03.649Z,70.35
2023-03-29T17:39:30.672Z,70.87
2023-03-29T17:41:57.028Z,70.83
2023-03-29T17:44:23.380Z,70.92
2023-03-29T17:46:49.755Z,71.20
2023-03-29T17:49:16.198Z,71.03
2023-03-29T17:51:42.685Z,71.48
2023-03-29T17:54:09.290Z,71.24
2023-03-29T17:56:35.709Z,71.49
2023-03-29T17:59:02.051Z,71.73
2023-03-29T18:01:28.492Z,71.44
2023-03-29T18:03:54.951Z,71.49
2023-03-29T18:06:21.380Z,71.46
2023-03-29T18:08:47.840Z,71.94
2023-03-29T18:11:21.914Z,71.71
2023-03-29T18:13:49.708Z,72.15
2023-03-29T18:16:16.325Z,72.16
2023-03-29T18:18:43.733Z,72.27
2023-03-29T18:21:10.808Z,72.27
2023-03-29T18:23:39.825Z,72.45
2023-03-29T18:26:07.462Z,72.89
2023-03-29T18:28:34.962Z,72.78
2023-03-29T18:31:01.322Z,72.49
2023-03-29T18:33:28.650Z,72.75
2023-03-29T18:35:55.042Z,72.96
2023-03-29T18:38:22.485Z,72.98
2023-03-29T18:40:50.168Z,72.76
2023-03-29T18:43:16.561Z,73.24
2023-03-29T18:45:43.643Z,72.67
2023-03-29T18:48:10.464Z,73.30
2023-03-29T18:50:37.447Z,73.03
2023-03-29T18:53:04.507Z,72.77
2023-03-29T18:55:31.113Z,73.11
2023-03-29T18:57:57.471Z,73.20
2023-03-29T19:00:23.821Z,73.12
2023-03-29T19:02:50.261Z,73.10
2023-03-29T19:05:16.710Z,73.43
2023-03-29T19:07:43.080Z,73.58
2023-03-29T19:10:09.538Z,73.45
2023-03-29T19:12:36.034Z,73.63
2023-03-29T19:15:02.464Z,73.94
2023-03-29T19:17:28.972Z,74.00
2023-03-29T19:19:56.690Z,74.03
2023-03-29T19:22:23.360Z,74.36
2023-03-29T19:24:49.840Z,74.07
2023-03-29T19:27:16.516Z,74.31
2023-03-29T19:29:42.926Z,73.94
2023-03-29T19:32:09.427Z,74.07
2023-03-29T19:34:36.152Z,74.06
2023-03-29T19:37:02.623Z,74.04
2023-03-29T19:39:29.792Z,74.13
2023-03-29T19:41:56.720Z,74.20
2023-03-29T19:44:25.985Z,74.01
2023-03-29T19:46:52.457Z,74.04
2023-03-29T19:49:18.933Z,74.05
2023-03-29T19:51:45.468Z,74.52
2023-03-29T19:54:17.280Z,74.46
2023-03-29T19:56:43.939Z,74.99
2023-03-29T19:59:11.044Z,75.15
2023-03-29T20:01:39.228Z,74.93
2023-03-29T20:04:05.935Z,75.20
2023-03-29T20:06:32.317Z,75.34
2023-03-29T20:08:58.855Z,75.44
2023-03-29T20:11:25.509Z,74.88
2023-03-29T20:13:52.092Z,74.93
2023-03-29T20:16:19.568Z,75.50
2023-03-29T20:18:46.368Z,75.27
2023-03-29T20:21:16.226Z,75.16
2023-03-29T20:23:42.722Z,75.29
2023-03-29T20:26:09.134Z,75.02
2023-03-29T20:28:37.466Z,75.14
2023-03-29T20:31:06.069Z,75.28
2023-03-29T20:33:32.687Z,74.85
2023-03-29T20:35:59.276Z,75.17
2023-03-29T20:38:25.886Z,74.65
2023-03-29T20:40:53.444Z,74.64
2023-03-29T20:43:20.152Z,74.91
2023-03-29T20:45:53.500Z,75.03
2023-03-29T20:48:23.040Z,74.62
2023-03-29T20:50:50.402Z,75.10
2023-03-29T20:53:18.094Z,75.12
2023-03-29T20:55:44.584Z,75.17
2023-03-29T20:58:10.951Z,74.90
2023-03-29T21:00:37.617Z,75.01
2023-03-29T21:03:04.113Z,74.58
2023-03-29T21:05:32.913Z,75.00
2023-03-29T21:07:59.655Z,75.17
2023-03-29T21:10:27.420Z,75.24
2023-03-29T21:12:54.399Z,75.14
2023-03-29T21:15:21.107Z,74.93
2023-03-29T21:17:47.652Z,74.93
2023-03-29T21:20:14.956Z,75.06
2023-03-29T21:22:45.030Z,75.33
2023-03-29T21:25:15.474Z,75.42
2023-03-29T21:27:42.275Z,75.25
2023-03-29T21:30:09.882Z,75.53
2023-03-29T21:32:36.630Z,75.17
2023-03-29T21:35:03.748Z,74.87
2023-03-29T21:37:30.297Z,75.31
2023-03-29T21:39:56.696Z,75.37
2023-03-29T21:42:23.839Z,74.82
2023-03-29T21:44:50.370Z,75.17
2023-03-29T21:47:16.776Z,75.23
2023-03-29T21:49:43.156Z,75.35
2023-03-29T21:52:09.581Z,75.54
2023-03-29T21:54:36.312Z,75.11
2023-03-29T21:57:02.700Z,75.32
2023-03-29T21:59:29.082Z,75.25
2023-03-29T22:01:55.776Z,75.05
2023-03-29T22:04:33.516Z,75.54
2023-03-29T22:07:03.971Z,75.25
2023-03-29T22:09:32.755Z,75.28
2023-03-29T22:11:59.725Z,75.42
2023-03-29T22:14:28.410Z,75.48
2023-03-29T22:16:54.831Z,75.69
2023-03-29T22:19:21.956Z,75.61
2023-03-29T22:21:48.709Z,75.96
2023-03-29T22:24:16.206Z,75.81
2023-03-29T22:26:44.843Z,75.79
2023-03-29T22:29:11.483Z,75.69
2023-03-29T22:31:39.302Z,76.00
2023-03-29T22:34:06.065Z,76.09
2023-03-29T22:36:33.073Z,75.82
2023-03-29T22:38:59.575Z,76.29
2023-03-29T22:41:27.552Z,75.85
2023-03-29T22:43:56.354Z,76.31
2023-03-29T22:46:23.026Z,76.04
2023-03-29T22:48:49.643Z,75.81
2023-03-29T22:51:16.674Z,76.07
2023-03-29T22:53:43.051Z,75.69
2023-03-29T22:56:09.702Z,75.92
2023-03-29T22:58:37.645Z,75.94
2023-03-29T23:01:05.590Z,75.83
2023-03-29T23:03:32.486Z,75.56
2023-03-29T23:06:02.350Z,75.87
2023-03-29T23:08:30.719Z,75.72
2023-03-29T23:10:57.405Z,75.92
2023-03-29T23:13:25.870Z,75.91
2023-03-29T23:15:54.871Z,75.65
2023-03-29T23:18:23.430Z,75.56
2023-03-29T23:20:52.372Z,76.16
2023-03-29T23:23:19.650Z,75.51
2023-03-29T23:25:47.564Z,75.68
2023-03-29T23:28:16.822Z,75.89
2023-03-29T23:30:43.421Z,75.82
2023-03-29T23:33:10.606Z,75.95
2023-03-29T23:35:37.637Z,75.66
2023-03-29T23:38:05.477Z,75.50
2023-03-29T23:40:33.081Z,75.96
2023-03-29T23:42:59.501Z,76.26
2023-03-29T23:45:28.054Z,76.02
2023-03-29T23:47:54.663Z,75.61
2023-03-29T23:50:22.541Z,75.99
2023-03-29T23:52:49.456Z,76.73
2023-03-29T23:55:16.014Z,76.61
2023-03-29T23:57:42.361Z,76.67
